Brooklyn, Alabama
Current Conditions -  °F | °C
As of 11:53 AM on Saturday 25 Oct 2014 (Local Time) from KGZH Reporting Station
Clear Clear  
Wind Chill: 75°   Ceiling: Unl
Heat Index: 75°   Visibility: 10mi
Dew Point: 49°   Wind: 8mph
Humidity: 40%   Direction: 40°NE
Pressure: 30.1"   Gusts: 18mph
Location:  31.26°N, 86.77°W
Report Text: KGZH 251653Z AUTO 04007G16KT 10SM CLR 24/09 A3010 RMK AO2 SLP192 T02390094
Loading
Personal Weather Stations






























Interactive Weather Map
Tropical Storm Tracking
New forecast layout! Learn more

10-Day Weather Forecast

Advertisements
Track Severe Weather on mobile